Pagrindinis puslapis
METAR-TAF:

METAR-TAF

Oro uostai :

Haugesiundas, Norvegija

platuma: 59-21N, ilguma: 005-13E, Aukštis: 2 m

Dabartinis oras

Ataskaita buvo paskelbta 18 minutes, ne 02:20 UTC
Vėjas 6 kt iš Rytų
Temperatūra 0°C
Drėgmė 86%
Slėgis 993 hPa
Matomumas 10 km arba daugiau

METAR: ENHD 010220Z AUTO 08006KT 9999 NCD 00/M02 Q0993

Laikas: 03:38 (02:38 UTC)

Prognozė

Ataskaita buvo paskelbta 9 valandos ir 38 minutes, ne 17:00 UTC
Prognozė galioja nuo 30 metu 18 UTC su 30 metu 21 UTC
Vėjas 8 kt iš Šiaurės Rytų
Matomumas 10 km arba daugiau
Mažai debesys ne aukštis 2000 ft
Išsisklaidę debesys ne aukštis 4000 ft

TAF: ENHD 301700Z 3018/3021 04008KT 9999 FEW020 SCT040

Orai ataskaitas ir orų prognozės (METAR, TAF).

turimą stotys yra geltonos ir raudonos taškus žemėlapyje.

Perkelti pele per norėdami pamatyti stoties vardą.

Tada spustelėkite, norėdami matyti oro stebėjimo ir prognozės.

Norėdami pakeisti žemėlapį: spustelėkite ant žalios mygtukų su juodo kryžiaus žemyn,; žalią mygtuką su brūkšneliu, jei norite nutolinti; arba žalių rodyklių gretimoms žemėlapius.


METAR-TAF: